Address 0x6521877b7324586e52e8ad50a0353dc1c81c2a7b 7

Overview

Balance:
3.157989038898648349 MATIC

Token:
My Name Tag:
Not Available

Txn Hash Method
Block
From
To
Value [Txn Fee]
0xd434838281689235cb56fc1cf93c620aa9270e85b7d92e11791f57716ad1b7ad0x60806040267863502022-06-17 13:34:448 days 21 hrs ago0x6521877b7324586e52e8ad50a0353dc1c81c2a7bOUT Contract Creation0 MATIC0.007765012555 2.500000018
0x479c33a2158732146b7bbe5ce5c4fcc3efcec11b91d8d43db999ab86dc692adf0x60806040246919532022-02-07 16:34:45138 days 18 hrs ago0x6521877b7324586e52e8ad50a0353dc1c81c2a7bOUT Contract Creation0 MATIC0.000587693999 1.999999999
0xc4174fe3dc0078a5da3685060703e823deb946d8643728d8b302c27cec128b97Genesis Account246886282022-02-07 13:51:29138 days 21 hrs ago0x6521877b7324586e52e8ad50a0353dc1c81c2a7bOUT 0x9bbc09eb6af75e7c708bb0563a232083555bbc740 MATIC0.001245233999 1.999999999
0x12fc72ed225fb831b4393bc9ed028a05e50d37364e450d33e5477d6d71007b31Set Minimum Inve...246886282022-02-07 13:51:29138 days 21 hrs ago0x6521877b7324586e52e8ad50a0353dc1c81c2a7bOUT 0x9bbc09eb6af75e7c708bb0563a232083555bbc740 MATIC0.000099322 2
0x8234bcaa0522f48017baec6266f56b04beb37960708bdda74e88519a43697c69Set Community Ad...246886282022-02-07 13:51:29138 days 21 hrs ago0x6521877b7324586e52e8ad50a0353dc1c81c2a7bOUT 0xc6bc5c6be9934987ab466e295015c4e912799bd30 MATIC0.000092592 2
0x718f86a0d89c89c2d26761799d014e870334b721e03dea88ba94f9c788ce5c23Add Authorized A...246886272022-02-07 13:51:25138 days 21 hrs ago0x6521877b7324586e52e8ad50a0353dc1c81c2a7bOUT 0xc6bc5c6be9934987ab466e295015c4e912799bd30 MATIC0.000092838 2.000000001
0xca2a6e9498a896d7bdea6d7f7bab76d8c8067734df1031b16494bd0c4d8f9e36Add Authorized A...246886272022-02-07 13:51:25138 days 21 hrs ago0x6521877b7324586e52e8ad50a0353dc1c81c2a7bOUT 0xf4e83430d9fa4fc7614440ab2311c2a1680248700 MATIC0.000092876 2
0xc0340a5fd32f95df199f94e9c50d96c39ec7a40de15886cc6399161ff289dfdb0x60806040246886252022-02-07 13:51:17138 days 21 hrs ago0x6521877b7324586e52e8ad50a0353dc1c81c2a7bOUT Contract Creation0 MATIC0.007948275996 1.999999999
0x20b57310a9cffaf41ccfd42b0459fc46e73a8661e24b9be123c0b2733b200b63Iniitialize Plan246886242022-02-07 13:51:13138 days 21 hrs ago0x6521877b7324586e52e8ad50a0353dc1c81c2a7bOUT 0xc6bc5c6be9934987ab466e295015c4e912799bd30 MATIC0.000247511999 1.999999998
0x7b34b233e4e287e23668af25784d312e66455337dbaeaa6838c8060f2edfbb48Iniitialize Plan246886232022-02-07 13:51:09138 days 21 hrs ago0x6521877b7324586e52e8ad50a0353dc1c81c2a7bOUT 0xc6bc5c6be9934987ab466e295015c4e912799bd30 MATIC0.000247488 2.000000002
0x81ffe9ed6a6b27f37c52cbb9fdd19120e6cd4dcef47216f669fe1b9fcee7c82bIniitialize Plan246886212022-02-07 13:51:01138 days 21 hrs ago0x6521877b7324586e52e8ad50a0353dc1c81c2a7bOUT 0xc6bc5c6be9934987ab466e295015c4e912799bd30 MATIC0.000247512 2
0x6a2320541c0d0a932120f915b9b7c89a853c39b0b47446cca0ed25e394ddac90Iniitialize Plan246886192022-02-07 13:50:53138 days 21 hrs ago0x6521877b7324586e52e8ad50a0353dc1c81c2a7bOUT 0xc6bc5c6be9934987ab466e295015c4e912799bd30 MATIC0.000247488 2
0xc4f9cefe5217c951fa96ecbca922c182c6ff458d79e4f92bfb683bc735744ea0Iniitialize Plan246886172022-02-07 13:50:45138 days 21 hrs ago0x6521877b7324586e52e8ad50a0353dc1c81c2a7bOUT 0xc6bc5c6be9934987ab466e295015c4e912799bd30 MATIC0.000241936 2
0x1a8aef51462ccda8b467b41db9c6b6acf66b7ca5a211e98c189324f2003b36330x60806040246886162022-02-07 13:50:41138 days 21 hrs ago0x6521877b7324586e52e8ad50a0353dc1c81c2a7bOUT Contract Creation0 MATIC0.003799442001 2.000000001
0xea7f34491728f851f8d74494926764f7e66eda2c7d80c15d5cbf66874719ea730x60806040246886142022-02-07 13:50:33138 days 21 hrs ago0x6521877b7324586e52e8ad50a0353dc1c81c2a7bOUT Contract Creation0 MATIC0.006185232003 2.000000001
0xce6de81f1ce2fe5611d521d193da9d34406e37e99746b09f10cd795b4f46e2990x60806040246886122022-02-07 13:50:25138 days 21 hrs ago0x6521877b7324586e52e8ad50a0353dc1c81c2a7bOUT Contract Creation0 MATIC0.005378334 2
0x52a2aa4357895360cb1cedbbefd9efbd35b32e1bb96f49434b4a6337a6c2660aTransfer243601022022-01-28 21:52:05148 days 13 hrs ago0x6521877b7324586e52e8ad50a0353dc1c81c2a7bOUT0x84a36a9978eab4251a957a539f1b76e2246166e51 MATIC0.0000419999991.99999999
0xd8d79106fbc76a1db96f304fa82d25adae6ce4fd25aadd1b608191d00f036522Transfer243600492022-01-28 21:49:47148 days 13 hrs ago0x6521877b7324586e52e8ad50a0353dc1c81c2a7bSELF0x6521877b7324586e52e8ad50a0353dc1c81c2a7b1 MATIC0.0000419999991.999999996
0x43ba1502e4eade369da2166618431051c26dc0f1094081b1b97a8763612387f7Transfer243598472022-01-28 21:40:23148 days 13 hrs ago0x6521877b7324586e52e8ad50a0353dc1c81c2a7bOUT0x97cf03897ff34125613ca0587fe00a43b66eb9671 MATIC0.0000419999981.999999913
0x65caefed6de5d9095682018f823f0bd01ddbaeb6f039d6015f7af509f9ae10b6Transfer243499372022-01-28 14:50:07148 days 20 hrs ago0x6521877b7324586e52e8ad50a0353dc1c81c2a7bOUT0x84a36a9978eab4251a957a539f1b76e2246166e50 MATIC0.000042 2
0x8ca41a73f799dade9de93a1b4f82eb38f368607217371ed03875431a5467157cTransfer242883252022-01-26 16:28:59150 days 18 hrs ago0xf39fd6e51aad88f6f4ce6ab8827279cfffb92266 IN 0x6521877b7324586e52e8ad50a0353dc1c81c2a7b0.4494 MATIC0.0000422.000000001
0x7a1742cb7846e1e5efc28fb5704c7229ebc89a0dbf61aebd84b9e820600a9728Transfer242211142022-01-24 17:39:09152 days 17 hrs ago0xe633661b641e81da062e1b7464c5cdf59af50ca6 IN 0x6521877b7324586e52e8ad50a0353dc1c81c2a7b1 MATIC0.0000422
0xd173f16e7c53df29209715d1cedc3aedfdee2945dfa8770982d9591ecc97d091Transfer242209392022-01-24 17:33:11152 days 17 hrs ago0x6521877b7324586e52e8ad50a0353dc1c81c2a7bOUT0xe633661b641e81da062e1b7464c5cdf59af50ca60.3 MATIC0.000041999999 1.99999997
0x1fc3e7abb6463354372a74995561c73f3c8fe7a95fd98dbc36ef431573ede8abTransfer242208902022-01-24 17:31:29152 days 17 hrs ago0x6521877b7324586e52e8ad50a0353dc1c81c2a7bOUT0xe633661b641e81da062e1b7464c5cdf59af50ca61 MATIC0.0000419999991.999999981
0x92c70bf679543e2c4a27b18bad9094a29616b2442ed31b4765d4dbcc8a8d91e0Transfer242100902022-01-24 9:26:27153 days 1 hr ago0xf39fd6e51aad88f6f4ce6ab8827279cfffb92266 IN 0x6521877b7324586e52e8ad50a0353dc1c81c2a7b3.7 MATIC0.0000419999991.999999999
[ Download CSV Export 
Latest 7 internal transactions
Parent Txn Hash Block From To Value
0x830114e808fbbbf203dbcc002b09fd4f8a9b1a46ece87d21fa7c0d442eabb6eb226997452021-12-15 16:44:53192 days 18 hrs ago 0x07bbec7901a068b367acae1ea0da36db27e794210x6521877b7324586e52e8ad50a0353dc1c81c2a7b0.025 MATIC
0xe2a478b37004caad68fc89cc70fdfecfbe4acac1ba1fd81203325c8b503248fe226996902021-12-15 16:42:59192 days 18 hrs ago 0x07bbec7901a068b367acae1ea0da36db27e794210x6521877b7324586e52e8ad50a0353dc1c81c2a7b0.11625 MATIC
0x818477ae8431dbb33975a10b7e501a3d790e164dab7d665ae18eb8032c978484226965952021-12-15 14:53:05192 days 20 hrs ago 0x7f092e65c688a509737fcd8d0998dd12208f52970x6521877b7324586e52e8ad50a0353dc1c81c2a7b0.5 MATIC
0xbdea53dc41c279a245ecc23244f41424b0f7e4b73ad6879e96aef746f6a38a5a226965582021-12-15 14:51:47192 days 20 hrs ago 0x7f092e65c688a509737fcd8d0998dd12208f52970x6521877b7324586e52e8ad50a0353dc1c81c2a7b0.5 MATIC
0xf3a8a8eaa4cb681f6ca39d4872e9ed9b4ff35ee87c35def952cbe24d72b492d2221850582021-12-03 0:07:14205 days 10 hrs ago 0x7f092e65c688a509737fcd8d0998dd12208f52970x6521877b7324586e52e8ad50a0353dc1c81c2a7b0.5 MATIC
0x89602c9a005437730457cca05108111d5c164037e757fe73a6be2ffbb6077313221850502021-12-03 0:06:42205 days 10 hrs ago 0x7f092e65c688a509737fcd8d0998dd12208f52970x6521877b7324586e52e8ad50a0353dc1c81c2a7b0.5 MATIC
0x99675e4c8df52a4c0671e5f86ca278cb2af9392564237e8d7c7baa13584d2287221850432021-12-03 0:06:14205 days 10 hrs ago 0x7f092e65c688a509737fcd8d0998dd12208f52970x6521877b7324586e52e8ad50a0353dc1c81c2a7b0.5 MATIC
[ Download CSV Export 
Loading

Contract Name:
0 MATIC

Compiler Version
0

Optimization Enabled:
0 MATIC

Other Settings:
-NA-
Block Transaction Gas Used Reward
Age Block Fee Address BC Fee Address Voting Power Jailed Incoming
Block Uncle Number Difficulty Gas Used Reward
Loading